sensor_id;sensor_type;location;lat;lon;timestamp;P1;durP1;ratioP1;P2;durP2;ratioP2
9062;SDS011;4567;42.118;24.746;2022-12-10T00:00:00;65.93;;;30.07;;
9062;SDS011;4567;42.118;24.746;2022-12-10T00:02:28;71.37;;;28.83;;
9062;SDS011;4567;42.118;24.746;2022-12-10T00:04:55;67.43;;;29.00;;
9062;SDS011;4567;42.118;24.746;2022-12-10T00:07:21;65.90;;;27.83;;
9062;SDS011;4567;42.118;24.746;2022-12-10T00:09:48;60.00;;;27.17;;
9062;SDS011;4567;42.118;24.746;2022-12-10T00:12:15;65.73;;;27.30;;
9062;SDS011;4567;42.118;24.746;2022-12-10T00:14:41;61.53;;;27.60;;
9062;SDS011;4567;42.118;24.746;2022-12-10T00:17:08;65.87;;;27.27;;
9062;SDS011;4567;42.118;24.746;2022-12-10T00:19:36;65.10;;;27.07;;
9062;SDS011;4567;42.118;24.746;2022-12-10T00:22:03;59.73;;;26.47;;
9062;SDS011;4567;42.118;24.746;2022-12-10T00:24:29;65.97;;;27.80;;
9062;SDS011;4567;42.118;24.746;2022-12-10T00:26:56;55.47;;;27.30;;
9062;SDS011;4567;42.118;24.746;2022-12-10T00:29:23;67.67;;;28.00;;
9062;SDS011;4567;42.118;24.746;2022-12-10T00:31:49;61.40;;;27.10;;
9062;SDS011;4567;42.118;24.746;2022-12-10T00:34:16;70.77;;;28.63;;
9062;SDS011;4567;42.118;24.746;2022-12-10T00:36:45;64.60;;;29.40;;
9062;SDS011;4567;42.118;24.746;2022-12-10T00:39:13;64.77;;;28.07;;
9062;SDS011;4567;42.118;24.746;2022-12-10T00:41:41;73.30;;;30.00;;
9062;SDS011;4567;42.118;24.746;2022-12-10T00:44:08;65.97;;;28.33;;
9062;SDS011;4567;42.118;24.746;2022-12-10T00:46:35;70.63;;;28.97;;
9062;SDS011;4567;42.118;24.746;2022-12-10T00:49:02;68.37;;;28.83;;
9062;SDS011;4567;42.118;24.746;2022-12-10T00:51:29;63.87;;;28.63;;
9062;SDS011;4567;42.118;24.746;2022-12-10T00:53:57;64.03;;;28.03;;
9062;SDS011;4567;42.118;24.746;2022-12-10T00:56:25;65.57;;;28.57;;
9062;SDS011;4567;42.118;24.746;2022-12-10T00:58:54;66.80;;;29.00;;
9062;SDS011;4567;42.118;24.746;2022-12-10T01:01:22;66.40;;;29.73;;
9062;SDS011;4567;42.118;24.746;2022-12-10T01:03:52;68.53;;;30.00;;
9062;SDS011;4567;42.118;24.746;2022-12-10T01:06:20;63.37;;;29.53;;
9062;SDS011;4567;42.118;24.746;2022-12-10T01:08:48;68.57;;;31.27;;
9062;SDS011;4567;42.118;24.746;2022-12-10T01:11:18;72.83;;;31.57;;
9062;SDS011;4567;42.118;24.746;2022-12-10T01:13:46;73.63;;;32.40;;
9062;SDS011;4567;42.118;24.746;2022-12-10T01:16:15;81.00;;;33.17;;
9062;SDS011;4567;42.118;24.746;2022-12-10T01:18:44;74.77;;;32.23;;
9062;SDS011;4567;42.118;24.746;2022-12-10T01:21:13;71.87;;;31.63;;
9062;SDS011;4567;42.118;24.746;2022-12-10T01:23:42;68.87;;;31.83;;
9062;SDS011;4567;42.118;24.746;2022-12-10T01:26:11;69.93;;;32.30;;
9062;SDS011;4567;42.118;24.746;2022-12-10T01:28:40;72.93;;;33.00;;
9062;SDS011;4567;42.118;24.746;2022-12-10T01:31:08;74.57;;;33.80;;
9062;SDS011;4567;42.118;24.746;2022-12-10T01:33:37;75.87;;;35.40;;
9062;SDS011;4567;42.118;24.746;2022-12-10T01:36:06;81.23;;;35.67;;
9062;SDS011;4567;42.118;24.746;2022-12-10T01:38:35;81.07;;;37.03;;
9062;SDS011;4567;42.118;24.746;2022-12-10T01:41:02;78.57;;;36.40;;
9062;SDS011;4567;42.118;24.746;2022-12-10T01:43:46;93.43;;;37.07;;
9062;SDS011;4567;42.118;24.746;2022-12-10T01:46:17;79.20;;;35.93;;
9062;SDS011;4567;42.118;24.746;2022-12-10T01:48:44;82.50;;;36.07;;
9062;SDS011;4567;42.118;24.746;2022-12-10T01:51:10;75.67;;;36.80;;
9062;SDS011;4567;42.118;24.746;2022-12-10T01:53:38;82.63;;;36.00;;
9062;SDS011;4567;42.118;24.746;2022-12-10T01:56:05;87.37;;;37.13;;
9062;SDS011;4567;42.118;24.746;2022-12-10T01:58:32;81.53;;;36.43;;
9062;SDS011;4567;42.118;24.746;2022-12-10T02:01:04;87.63;;;38.67;;
9062;SDS011;4567;42.118;24.746;2022-12-10T02:03:36;85.30;;;38.60;;
9062;SDS011;4567;42.118;24.746;2022-12-10T02:06:15;93.53;;;39.10;;
9062;SDS011;4567;42.118;24.746;2022-12-10T02:08:55;97.93;;;40.00;;
9062;SDS011;4567;42.118;24.746;2022-12-10T02:11:31;99.47;;;39.07;;
9062;SDS011;4567;42.118;24.746;2022-12-10T02:14:04;88.47;;;38.53;;
9062;SDS011;4567;42.118;24.746;2022-12-10T02:16:40;86.13;;;38.40;;
9062;SDS011;4567;42.118;24.746;2022-12-10T02:19:12;87.03;;;38.10;;
9062;SDS011;4567;42.118;24.746;2022-12-10T02:21:44;90.43;;;37.27;;
9062;SDS011;4567;42.118;24.746;2022-12-10T02:24:15;89.37;;;38.80;;
9062;SDS011;4567;42.118;24.746;2022-12-10T02:26:49;79.67;;;37.00;;
9062;SDS011;4567;42.118;24.746;2022-12-10T02:29:24;79.33;;;35.70;;
9062;SDS011;4567;42.118;24.746;2022-12-10T02:31:53;70.80;;;35.60;;
9062;SDS011;4567;42.118;24.746;2022-12-10T02:34:26;78.53;;;34.73;;
9062;SDS011;4567;42.118;24.746;2022-12-10T02:36:56;73.43;;;35.70;;
9062;SDS011;4567;42.118;24.746;2022-12-10T02:39:28;66.77;;;34.07;;
9062;SDS011;4567;42.118;24.746;2022-12-10T02:41:58;68.13;;;34.37;;
9062;SDS011;4567;42.118;24.746;2022-12-10T02:44:28;65.27;;;32.87;;
9062;SDS011;4567;42.118;24.746;2022-12-10T02:46:56;75.97;;;33.93;;
9062;SDS011;4567;42.118;24.746;2022-12-10T02:49:24;61.33;;;32.67;;
9062;SDS011;4567;42.118;24.746;2022-12-10T02:51:52;67.70;;;32.93;;
9062;SDS011;4567;42.118;24.746;2022-12-10T02:57:20;57.77;;;30.93;;
9062;SDS011;4567;42.118;24.746;2022-12-10T03:00:03;56.87;;;29.90;;
9062;SDS011;4567;42.118;24.746;2022-12-10T03:02:34;60.20;;;30.50;;
9062;SDS011;4567;42.118;24.746;2022-12-10T03:05:12;56.23;;;30.73;;
9062;SDS011;4567;42.118;24.746;2022-12-10T03:07:44;55.37;;;29.97;;
9062;SDS011;4567;42.118;24.746;2022-12-10T03:10:17;56.50;;;30.37;;
9062;SDS011;4567;42.118;24.746;2022-12-10T03:12:52;63.97;;;30.00;;
9062;SDS011;4567;42.118;24.746;2022-12-10T03:15:26;58.67;;;30.33;;
9062;SDS011;4567;42.118;24.746;2022-12-10T03:17:56;65.37;;;30.50;;
9062;SDS011;4567;42.118;24.746;2022-12-10T03:20:26;63.33;;;29.80;;
9062;SDS011;4567;42.118;24.746;2022-12-10T03:22:53;59.00;;;30.57;;
9062;SDS011;4567;42.118;24.746;2022-12-10T03:25:21;62.27;;;31.10;;
9062;SDS011;4567;42.118;24.746;2022-12-10T03:27:50;64.20;;;33.53;;
9062;SDS011;4567;42.118;24.746;2022-12-10T03:30:20;66.83;;;32.73;;
9062;SDS011;4567;42.118;24.746;2022-12-10T03:32:48;62.83;;;32.03;;
9062;SDS011;4567;42.118;24.746;2022-12-10T03:35:15;56.90;;;30.33;;
9062;SDS011;4567;42.118;24.746;2022-12-10T03:37:44;57.97;;;30.77;;
9062;SDS011;4567;42.118;24.746;2022-12-10T03:40:11;63.27;;;30.80;;
9062;SDS011;4567;42.118;24.746;2022-12-10T03:42:39;63.70;;;31.40;;
9062;SDS011;4567;42.118;24.746;2022-12-10T03:45:06;69.63;;;33.00;;
9062;SDS011;4567;42.118;24.746;2022-12-10T03:47:33;75.37;;;32.60;;
9062;SDS011;4567;42.118;24.746;2022-12-10T03:50:01;76.17;;;34.50;;
9062;SDS011;4567;42.118;24.746;2022-12-10T03:52:28;73.60;;;34.03;;
9062;SDS011;4567;42.118;24.746;2022-12-10T03:54:55;83.67;;;34.80;;
9062;SDS011;4567;42.118;24.746;2022-12-10T03:57:22;72.87;;;32.30;;
9062;SDS011;4567;42.118;24.746;2022-12-10T03:59:48;81.33;;;33.93;;
9062;SDS011;4567;42.118;24.746;2022-12-10T04:02:15;80.17;;;35.07;;
9062;SDS011;4567;42.118;24.746;2022-12-10T04:04:42;74.97;;;33.17;;
9062;SDS011;4567;42.118;24.746;2022-12-10T04:07:10;74.63;;;31.43;;
9062;SDS011;4567;42.118;24.746;2022-12-10T04:09:38;70.67;;;29.77;;
9062;SDS011;4567;42.118;24.746;2022-12-10T04:12:04;66.87;;;30.00;;
9062;SDS011;4567;42.118;24.746;2022-12-10T04:14:32;63.53;;;29.90;;
9062;SDS011;4567;42.118;24.746;2022-12-10T04:17:16;67.87;;;29.70;;
9062;SDS011;4567;42.118;24.746;2022-12-10T04:19:42;65.47;;;29.23;;
9062;SDS011;4567;42.118;24.746;2022-12-10T04:22:10;61.97;;;27.53;;
9062;SDS011;4567;42.118;24.746;2022-12-10T04:24:55;61.87;;;27.83;;
9062;SDS011;4567;42.118;24.746;2022-12-10T04:27:39;63.97;;;28.47;;
9062;SDS011;4567;42.118;24.746;2022-12-10T04:30:08;59.70;;;27.73;;
9062;SDS011;4567;42.118;24.746;2022-12-10T04:32:36;55.80;;;27.00;;
9062;SDS011;4567;42.118;24.746;2022-12-10T04:35:03;56.50;;;25.83;;
9062;SDS011;4567;42.118;24.746;2022-12-10T04:37:32;56.27;;;26.53;;
9062;SDS011;4567;42.118;24.746;2022-12-10T04:39:59;58.07;;;26.97;;
9062;SDS011;4567;42.118;24.746;2022-12-10T04:42:26;55.17;;;26.73;;
9062;SDS011;4567;42.118;24.746;2022-12-10T04:44:52;50.97;;;25.93;;
9062;SDS011;4567;42.118;24.746;2022-12-10T04:47:19;54.37;;;26.47;;
9062;SDS011;4567;42.118;24.746;2022-12-10T04:49:46;57.10;;;26.63;;
9062;SDS011;4567;42.118;24.746;2022-12-10T04:52:13;55.43;;;25.90;;
9062;SDS011;4567;42.118;24.746;2022-12-10T04:54:42;57.60;;;26.37;;
9062;SDS011;4567;42.118;24.746;2022-12-10T04:57:09;53.30;;;24.97;;
9062;SDS011;4567;42.118;24.746;2022-12-10T04:59:37;60.00;;;26.70;;
9062;SDS011;4567;42.118;24.746;2022-12-10T05:02:03;53.03;;;24.37;;
9062;SDS011;4567;42.118;24.746;2022-12-10T05:04:30;56.90;;;25.60;;
9062;SDS011;4567;42.118;24.746;2022-12-10T05:06:57;59.27;;;26.77;;
9062;SDS011;4567;42.118;24.746;2022-12-10T05:09:24;58.00;;;25.53;;
9062;SDS011;4567;42.118;24.746;2022-12-10T05:11:52;56.90;;;25.73;;
9062;SDS011;4567;42.118;24.746;2022-12-10T05:14:19;49.23;;;24.90;;
9062;SDS011;4567;42.118;24.746;2022-12-10T05:16:45;50.10;;;24.63;;
9062;SDS011;4567;42.118;24.746;2022-12-10T05:19:15;47.00;;;23.83;;
9062;SDS011;4567;42.118;24.746;2022-12-10T05:21:44;47.77;;;23.87;;
9062;SDS011;4567;42.118;24.746;2022-12-10T05:24:28;50.30;;;23.93;;
9062;SDS011;4567;42.118;24.746;2022-12-10T05:26:57;52.63;;;24.20;;
9062;SDS011;4567;42.118;24.746;2022-12-10T05:29:24;49.73;;;23.63;;
9062;SDS011;4567;42.118;24.746;2022-12-10T05:31:51;50.77;;;24.57;;
9062;SDS011;4567;42.118;24.746;2022-12-10T05:34:18;57.87;;;26.17;;
9062;SDS011;4567;42.118;24.746;2022-12-10T05:36:44;57.53;;;24.37;;
9062;SDS011;4567;42.118;24.746;2022-12-10T05:39:11;59.43;;;25.33;;
9062;SDS011;4567;42.118;24.746;2022-12-10T05:41:38;65.03;;;26.80;;
9062;SDS011;4567;42.118;24.746;2022-12-10T05:44:08;59.03;;;26.60;;
9062;SDS011;4567;42.118;24.746;2022-12-10T05:46:36;62.87;;;26.67;;
9062;SDS011;4567;42.118;24.746;2022-12-10T05:49:04;67.73;;;26.53;;
9062;SDS011;4567;42.118;24.746;2022-12-10T05:51:32;68.07;;;28.10;;
9062;SDS011;4567;42.118;24.746;2022-12-10T05:54:00;63.07;;;27.93;;
9062;SDS011;4567;42.118;24.746;2022-12-10T05:56:28;67.47;;;29.10;;
9062;SDS011;4567;42.118;24.746;2022-12-10T05:58:57;65.63;;;29.97;;
9062;SDS011;4567;42.118;24.746;2022-12-10T06:01:27;66.97;;;28.63;;
9062;SDS011;4567;42.118;24.746;2022-12-10T06:03:57;68.13;;;29.83;;
9062;SDS011;4567;42.118;24.746;2022-12-10T06:06:25;66.40;;;30.73;;
9062;SDS011;4567;42.118;24.746;2022-12-10T06:08:54;67.80;;;29.50;;
9062;SDS011;4567;42.118;24.746;2022-12-10T06:11:21;59.10;;;26.63;;
9062;SDS011;4567;42.118;24.746;2022-12-10T06:13:48;62.87;;;26.27;;
9062;SDS011;4567;42.118;24.746;2022-12-10T06:16:15;60.83;;;26.93;;
9062;SDS011;4567;42.118;24.746;2022-12-10T06:18:43;69.90;;;29.93;;
9062;SDS011;4567;42.118;24.746;2022-12-10T06:21:11;64.83;;;29.20;;
9062;SDS011;4567;42.118;24.746;2022-12-10T06:23:39;63.27;;;28.00;;
9062;SDS011;4567;42.118;24.746;2022-12-10T06:26:07;59.50;;;26.17;;
9062;SDS011;4567;42.118;24.746;2022-12-10T06:28:35;56.97;;;26.97;;
9062;SDS011;4567;42.118;24.746;2022-12-10T06:31:03;59.40;;;26.87;;
9062;SDS011;4567;42.118;24.746;2022-12-10T06:33:30;58.67;;;26.07;;
9062;SDS011;4567;42.118;24.746;2022-12-10T06:35:58;54.47;;;26.00;;
9062;SDS011;4567;42.118;24.746;2022-12-10T06:38:25;59.77;;;27.27;;
9062;SDS011;4567;42.118;24.746;2022-12-10T06:40:52;66.07;;;26.53;;
9062;SDS011;4567;42.118;24.746;2022-12-10T06:43:18;68.30;;;30.13;;
9062;SDS011;4567;42.118;24.746;2022-12-10T06:45:45;63.03;;;27.70;;
9062;SDS011;4567;42.118;24.746;2022-12-10T06:48:12;53.67;;;26.30;;
9062;SDS011;4567;42.118;24.746;2022-12-10T06:50:38;56.13;;;25.20;;
9062;SDS011;4567;42.118;24.746;2022-12-10T06:53:07;60.17;;;26.50;;
9062;SDS011;4567;42.118;24.746;2022-12-10T06:55:35;61.37;;;26.17;;
9062;SDS011;4567;42.118;24.746;2022-12-10T06:58:02;66.57;;;27.60;;
9062;SDS011;4567;42.118;24.746;2022-12-10T07:00:29;58.47;;;26.03;;
9062;SDS011;4567;42.118;24.746;2022-12-10T07:02:56;63.97;;;27.57;;
9062;SDS011;4567;42.118;24.746;2022-12-10T07:05:22;67.20;;;27.73;;
9062;SDS011;4567;42.118;24.746;2022-12-10T07:07:49;45.50;;;23.77;;
9062;SDS011;4567;42.118;24.746;2022-12-10T07:10:17;53.50;;;24.30;;
9062;SDS011;4567;42.118;24.746;2022-12-10T07:12:44;53.93;;;24.63;;
9062;SDS011;4567;42.118;24.746;2022-12-10T07:15:10;53.87;;;26.37;;
9062;SDS011;4567;42.118;24.746;2022-12-10T07:17:37;50.23;;;24.97;;
9062;SDS011;4567;42.118;24.746;2022-12-10T07:20:04;48.60;;;23.77;;
9062;SDS011;4567;42.118;24.746;2022-12-10T07:22:32;52.40;;;23.70;;
9062;SDS011;4567;42.118;24.746;2022-12-10T07:24:58;50.67;;;23.23;;
9062;SDS011;4567;42.118;24.746;2022-12-10T07:27:27;45.97;;;22.60;;
9062;SDS011;4567;42.118;24.746;2022-12-10T07:29:56;54.03;;;24.80;;
9062;SDS011;4567;42.118;24.746;2022-12-10T07:32:22;51.87;;;24.13;;
9062;SDS011;4567;42.118;24.746;2022-12-10T07:34:49;45.73;;;23.30;;
9062;SDS011;4567;42.118;24.746;2022-12-10T07:37:16;54.03;;;24.70;;
9062;SDS011;4567;42.118;24.746;2022-12-10T07:39:42;50.33;;;24.63;;
9062;SDS011;4567;42.118;24.746;2022-12-10T07:42:09;51.10;;;24.10;;
9062;SDS011;4567;42.118;24.746;2022-12-10T07:44:38;48.67;;;23.60;;
9062;SDS011;4567;42.118;24.746;2022-12-10T07:47:05;54.93;;;25.17;;
9062;SDS011;4567;42.118;24.746;2022-12-10T07:49:32;55.87;;;25.77;;
9062;SDS011;4567;42.118;24.746;2022-12-10T07:51:59;57.00;;;25.47;;
9062;SDS011;4567;42.118;24.746;2022-12-10T07:54:25;62.60;;;26.27;;
9062;SDS011;4567;42.118;24.746;2022-12-10T07:56:52;52.87;;;25.07;;
9062;SDS011;4567;42.118;24.746;2022-12-10T07:59:18;53.77;;;25.30;;
9062;SDS011;4567;42.118;24.746;2022-12-10T08:01:46;66.00;;;26.63;;
9062;SDS011;4567;42.118;24.746;2022-12-10T08:04:14;55.83;;;26.67;;
9062;SDS011;4567;42.118;24.746;2022-12-10T08:06:41;55.73;;;27.27;;
9062;SDS011;4567;42.118;24.746;2022-12-10T08:09:09;55.23;;;26.77;;
9062;SDS011;4567;42.118;24.746;2022-12-10T08:11:37;53.70;;;25.77;;
9062;SDS011;4567;42.118;24.746;2022-12-10T08:14:03;50.73;;;24.87;;
9062;SDS011;4567;42.118;24.746;2022-12-10T08:16:30;49.00;;;25.13;;
9062;SDS011;4567;42.118;24.746;2022-12-10T08:18:59;49.33;;;24.87;;
9062;SDS011;4567;42.118;24.746;2022-12-10T08:21:27;46.63;;;24.37;;
9062;SDS011;4567;42.118;24.746;2022-12-10T08:23:55;44.57;;;24.00;;
9062;SDS011;4567;42.118;24.746;2022-12-10T08:26:22;47.47;;;24.07;;
9062;SDS011;4567;42.118;24.746;2022-12-10T08:28:50;48.93;;;22.90;;
9062;SDS011;4567;42.118;24.746;2022-12-10T08:31:18;47.27;;;24.27;;
9062;SDS011;4567;42.118;24.746;2022-12-10T08:33:46;41.70;;;23.47;;
9062;SDS011;4567;42.118;24.746;2022-12-10T08:36:15;49.33;;;24.87;;
9062;SDS011;4567;42.118;24.746;2022-12-10T08:38:43;47.17;;;24.23;;
9062;SDS011;4567;42.118;24.746;2022-12-10T08:41:11;45.33;;;24.10;;
9062;SDS011;4567;42.118;24.746;2022-12-10T08:43:39;46.27;;;23.93;;
9062;SDS011;4567;42.118;24.746;2022-12-10T08:46:06;44.33;;;24.23;;
9062;SDS011;4567;42.118;24.746;2022-12-10T08:48:33;47.03;;;23.83;;
9062;SDS011;4567;42.118;24.746;2022-12-10T08:51:01;43.47;;;25.03;;
9062;SDS011;4567;42.118;24.746;2022-12-10T08:53:29;40.23;;;24.33;;
9062;SDS011;4567;42.118;24.746;2022-12-10T08:55:56;53.40;;;27.10;;
9062;SDS011;4567;42.118;24.746;2022-12-10T08:58:23;49.33;;;27.57;;
9062;SDS011;4567;42.118;24.746;2022-12-10T09:00:49;50.20;;;27.17;;
9062;SDS011;4567;42.118;24.746;2022-12-10T09:03:17;50.80;;;28.47;;
9062;SDS011;4567;42.118;24.746;2022-12-10T09:05:44;47.47;;;26.80;;
9062;SDS011;4567;42.118;24.746;2022-12-10T09:08:11;42.93;;;25.67;;
9062;SDS011;4567;42.118;24.746;2022-12-10T09:10:42;41.80;;;22.47;;
9062;SDS011;4567;42.118;24.746;2022-12-10T09:13:09;44.87;;;24.03;;
9062;SDS011;4567;42.118;24.746;2022-12-10T09:15:38;39.90;;;23.13;;
9062;SDS011;4567;42.118;24.746;2022-12-10T09:18:15;44.00;;;24.27;;
9062;SDS011;4567;42.118;24.746;2022-12-10T09:20:44;44.70;;;25.53;;
9062;SDS011;4567;42.118;24.746;2022-12-10T09:23:14;37.47;;;23.20;;
9062;SDS011;4567;42.118;24.746;2022-12-10T09:25:43;40.13;;;22.17;;
9062;SDS011;4567;42.118;24.746;2022-12-10T09:28:10;39.40;;;23.10;;
9062;SDS011;4567;42.118;24.746;2022-12-10T09:30:37;36.47;;;22.90;;
9062;SDS011;4567;42.118;24.746;2022-12-10T09:33:05;38.80;;;23.23;;
9062;SDS011;4567;42.118;24.746;2022-12-10T09:35:31;37.10;;;22.03;;
9062;SDS011;4567;42.118;24.746;2022-12-10T09:37:58;38.67;;;23.17;;
9062;SDS011;4567;42.118;24.746;2022-12-10T09:40:32;36.20;;;22.30;;
9062;SDS011;4567;42.118;24.746;2022-12-10T09:43:21;34.93;;;22.17;;
9062;SDS011;4567;42.118;24.746;2022-12-10T09:46:01;35.03;;;21.63;;
9062;SDS011;4567;42.118;24.746;2022-12-10T09:48:37;35.73;;;21.07;;
9062;SDS011;4567;42.118;24.746;2022-12-10T09:51:16;28.57;;;18.37;;
9062;SDS011;4567;42.118;24.746;2022-12-10T09:53:47;27.97;;;17.77;;
9062;SDS011;4567;42.118;24.746;2022-12-10T09:56:17;31.63;;;19.17;;
9062;SDS011;4567;42.118;24.746;2022-12-10T09:58:48;31.30;;;19.40;;
9062;SDS011;4567;42.118;24.746;2022-12-10T10:01:16;32.37;;;20.57;;
9062;SDS011;4567;42.118;24.746;2022-12-10T10:03:46;32.33;;;19.77;;
9062;SDS011;4567;42.118;24.746;2022-12-10T10:06:13;29.33;;;20.00;;
9062;SDS011;4567;42.118;24.746;2022-12-10T10:08:42;31.10;;;20.80;;
9062;SDS011;4567;42.118;24.746;2022-12-10T10:11:12;32.13;;;19.70;;
9062;SDS011;4567;42.118;24.746;2022-12-10T10:13:44;28.03;;;19.90;;
9062;SDS011;4567;42.118;24.746;2022-12-10T10:16:18;27.30;;;18.73;;
9062;SDS011;4567;42.118;24.746;2022-12-10T10:18:50;28.27;;;18.97;;
9062;SDS011;4567;42.118;24.746;2022-12-10T10:21:22;27.50;;;18.40;;
9062;SDS011;4567;42.118;24.746;2022-12-10T10:23:51;26.37;;;18.20;;
9062;SDS011;4567;42.118;24.746;2022-12-10T10:26:18;27.20;;;17.83;;
9062;SDS011;4567;42.118;24.746;2022-12-10T10:28:45;28.40;;;17.70;;
9062;SDS011;4567;42.118;24.746;2022-12-10T10:31:16;27.63;;;18.67;;
9062;SDS011;4567;42.118;24.746;2022-12-10T10:33:48;27.77;;;17.43;;
9062;SDS011;4567;42.118;24.746;2022-12-10T10:36:22;23.20;;;17.43;;
9062;SDS011;4567;42.118;24.746;2022-12-10T10:38:49;28.80;;;17.87;;
9062;SDS011;4567;42.118;24.746;2022-12-10T10:41:16;26.57;;;18.17;;
9062;SDS011;4567;42.118;24.746;2022-12-10T10:43:43;26.73;;;17.60;;
9062;SDS011;4567;42.118;24.746;2022-12-10T10:46:12;27.07;;;17.20;;
9062;SDS011;4567;42.118;24.746;2022-12-10T10:48:42;24.90;;;16.87;;
9062;SDS011;4567;42.118;24.746;2022-12-10T10:51:15;27.20;;;18.37;;
9062;SDS011;4567;42.118;24.746;2022-12-10T10:53:46;27.90;;;19.10;;
9062;SDS011;4567;42.118;24.746;2022-12-10T10:56:16;29.43;;;19.00;;
9062;SDS011;4567;42.118;24.746;2022-12-10T10:58:56;32.17;;;19.20;;
9062;SDS011;4567;42.118;24.746;2022-12-10T11:01:27;32.00;;;20.03;;
9062;SDS011;4567;42.118;24.746;2022-12-10T11:04:12;44.33;;;20.73;;
9062;SDS011;4567;42.118;24.746;2022-12-10T11:06:39;32.40;;;19.77;;
9062;SDS011;4567;42.118;24.746;2022-12-10T11:09:07;33.90;;;20.20;;
9062;SDS011;4567;42.118;24.746;2022-12-10T11:11:34;34.53;;;19.43;;
9062;SDS011;4567;42.118;24.746;2022-12-10T11:14:12;32.77;;;20.90;;
9062;SDS011;4567;42.118;24.746;2022-12-10T11:16:41;36.30;;;21.53;;
9062;SDS011;4567;42.118;24.746;2022-12-10T11:19:22;34.00;;;22.07;;
9062;SDS011;4567;42.118;24.746;2022-12-10T11:21:51;34.00;;;21.47;;
9062;SDS011;4567;42.118;24.746;2022-12-10T11:24:19;37.63;;;22.30;;
9062;SDS011;4567;42.118;24.746;2022-12-10T11:26:49;35.50;;;22.00;;
9062;SDS011;4567;42.118;24.746;2022-12-10T11:32:20;39.33;;;23.20;;
9062;SDS011;4567;42.118;24.746;2022-12-10T11:35:11;39.87;;;22.13;;
9062;SDS011;4567;42.118;24.746;2022-12-10T11:37:42;45.30;;;22.43;;
9062;SDS011;4567;42.118;24.746;2022-12-10T11:40:28;43.17;;;23.27;;
9062;SDS011;4567;42.118;24.746;2022-12-10T11:43:13;44.60;;;23.23;;
9062;SDS011;4567;42.118;24.746;2022-12-10T11:45:54;50.70;;;24.77;;
9062;SDS011;4567;42.118;24.746;2022-12-10T11:48:34;43.50;;;24.20;;
9062;SDS011;4567;42.118;24.746;2022-12-10T11:51:17;42.27;;;23.73;;
9062;SDS011;4567;42.118;24.746;2022-12-10T11:53:55;46.97;;;23.90;;
9062;SDS011;4567;42.118;24.746;2022-12-10T11:56:34;49.27;;;25.70;;
9062;SDS011;4567;42.118;24.746;2022-12-10T11:59:11;45.17;;;24.47;;
9062;SDS011;4567;42.118;24.746;2022-12-10T12:01:56;43.43;;;25.40;;
9062;SDS011;4567;42.118;24.746;2022-12-10T12:04:40;48.80;;;26.43;;
9062;SDS011;4567;42.118;24.746;2022-12-10T12:07:22;45.47;;;25.93;;
9062;SDS011;4567;42.118;24.746;2022-12-10T12:10:07;46.23;;;26.37;;
9062;SDS011;4567;42.118;24.746;2022-12-10T12:13:12;48.67;;;26.83;;
9062;SDS011;4567;42.118;24.746;2022-12-10T12:15:44;41.90;;;25.17;;
9062;SDS011;4567;42.118;24.746;2022-12-10T12:18:16;42.67;;;25.23;;
9062;SDS011;4567;42.118;24.746;2022-12-10T12:20:48;46.37;;;27.70;;
9062;SDS011;4567;42.118;24.746;2022-12-10T12:23:21;47.23;;;27.43;;
9062;SDS011;4567;42.118;24.746;2022-12-10T12:25:54;45.90;;;27.23;;
9062;SDS011;4567;42.118;24.746;2022-12-10T12:28:24;47.10;;;28.27;;
9062;SDS011;4567;42.118;24.746;2022-12-10T12:30:57;43.50;;;26.57;;
9062;SDS011;4567;42.118;24.746;2022-12-10T12:33:28;42.27;;;25.17;;
9062;SDS011;4567;42.118;24.746;2022-12-10T12:35:59;42.17;;;24.97;;
9062;SDS011;4567;42.118;24.746;2022-12-10T12:38:31;40.80;;;25.57;;
9062;SDS011;4567;42.118;24.746;2022-12-10T12:41:03;37.37;;;24.10;;
9062;SDS011;4567;42.118;24.746;2022-12-10T12:43:37;37.13;;;25.30;;
9062;SDS011;4567;42.118;24.746;2022-12-10T12:46:10;45.17;;;26.87;;
9062;SDS011;4567;42.118;24.746;2022-12-10T12:48:41;42.73;;;27.03;;
9062;SDS011;4567;42.118;24.746;2022-12-10T12:51:16;44.27;;;27.93;;
9062;SDS011;4567;42.118;24.746;2022-12-10T12:53:46;42.07;;;27.27;;
9062;SDS011;4567;42.118;24.746;2022-12-10T12:56:17;43.97;;;27.37;;
9062;SDS011;4567;42.118;24.746;2022-12-10T12:58:58;40.53;;;26.77;;
9062;SDS011;4567;42.118;24.746;2022-12-10T13:01:33;42.00;;;26.63;;
9062;SDS011;4567;42.118;24.746;2022-12-10T13:04:03;48.17;;;28.13;;
9062;SDS011;4567;42.118;24.746;2022-12-10T13:06:32;48.03;;;27.50;;
9062;SDS011;4567;42.118;24.746;2022-12-10T13:15:13;48.17;;;29.40;;
9062;SDS011;4567;42.118;24.746;2022-12-10T13:20:46;52.87;;;31.43;;
9062;SDS011;4567;42.118;24.746;2022-12-10T13:23:29;47.07;;;31.23;;
9062;SDS011;4567;42.118;24.746;2022-12-10T13:25:59;50.30;;;31.17;;
9062;SDS011;4567;42.118;24.746;2022-12-10T13:28:38;52.00;;;32.33;;
9062;SDS011;4567;42.118;24.746;2022-12-10T13:34:23;57.80;;;32.43;;
9062;SDS011;4567;42.118;24.746;2022-12-10T13:37:05;52.30;;;31.97;;
9062;SDS011;4567;42.118;24.746;2022-12-10T13:39:53;49.10;;;31.10;;
9062;SDS011;4567;42.118;24.746;2022-12-10T13:42:30;50.07;;;32.23;;
9062;SDS011;4567;42.118;24.746;2022-12-10T13:45:28;56.43;;;33.30;;
9062;SDS011;4567;42.118;24.746;2022-12-10T13:48:17;52.50;;;32.87;;
9062;SDS011;4567;42.118;24.746;2022-12-10T13:50:53;55.33;;;32.83;;
9062;SDS011;4567;42.118;24.746;2022-12-10T13:53:30;64.67;;;34.70;;
9062;SDS011;4567;42.118;24.746;2022-12-10T13:56:08;58.83;;;34.47;;
9062;SDS011;4567;42.118;24.746;2022-12-10T13:58:43;68.87;;;35.47;;
9062;SDS011;4567;42.118;24.746;2022-12-10T14:01:23;68.73;;;34.83;;
9062;SDS011;4567;42.118;24.746;2022-12-10T14:04:04;56.00;;;33.13;;
9062;SDS011;4567;42.118;24.746;2022-12-10T14:06:56;58.07;;;34.77;;
9062;SDS011;4567;42.118;24.746;2022-12-10T14:09:23;58.17;;;34.40;;
9062;SDS011;4567;42.118;24.746;2022-12-10T14:11:54;64.27;;;35.50;;
9062;SDS011;4567;42.118;24.746;2022-12-10T14:14:25;59.77;;;34.50;;
9062;SDS011;4567;42.118;24.746;2022-12-10T14:17:00;51.33;;;32.20;;
9062;SDS011;4567;42.118;24.746;2022-12-10T14:19:28;56.90;;;33.13;;
9062;SDS011;4567;42.118;24.746;2022-12-10T14:21:55;60.57;;;33.67;;
9062;SDS011;4567;42.118;24.746;2022-12-10T14:24:26;58.27;;;33.90;;
9062;SDS011;4567;42.118;24.746;2022-12-10T14:26:56;54.87;;;33.40;;
9062;SDS011;4567;42.118;24.746;2022-12-10T14:29:24;54.33;;;32.97;;
9062;SDS011;4567;42.118;24.746;2022-12-10T14:31:51;59.83;;;34.43;;
9062;SDS011;4567;42.118;24.746;2022-12-10T14:34:21;66.67;;;34.33;;
9062;SDS011;4567;42.118;24.746;2022-12-10T14:36:51;68.53;;;35.43;;
9062;SDS011;4567;42.118;24.746;2022-12-10T14:39:20;61.20;;;33.80;;
9062;SDS011;4567;42.118;24.746;2022-12-10T14:41:51;61.33;;;35.50;;
9062;SDS011;4567;42.118;24.746;2022-12-10T14:44:21;53.47;;;35.00;;
9062;SDS011;4567;42.118;24.746;2022-12-10T14:46:48;61.73;;;36.20;;
9062;SDS011;4567;42.118;24.746;2022-12-10T14:49:16;58.60;;;36.03;;
9062;SDS011;4567;42.118;24.746;2022-12-10T14:51:47;53.80;;;35.13;;
9062;SDS011;4567;42.118;24.746;2022-12-10T14:54:26;57.83;;;35.47;;
9062;SDS011;4567;42.118;24.746;2022-12-10T14:56:56;67.90;;;38.43;;
9062;SDS011;4567;42.118;24.746;2022-12-10T14:59:28;65.60;;;38.07;;
9062;SDS011;4567;42.118;24.746;2022-12-10T15:01:59;62.77;;;38.97;;
9062;SDS011;4567;42.118;24.746;2022-12-10T15:04:38;69.43;;;42.03;;
9062;SDS011;4567;42.118;24.746;2022-12-10T15:07:11;73.67;;;42.17;;
9062;SDS011;4567;42.118;24.746;2022-12-10T15:09:40;72.27;;;41.27;;